sensor_id;sensor_type;location;lat;lon;timestamp;P1;durP1;ratioP1;P2;durP2;ratioP2
9160;SDS011;4615;51.340;8.288;2023-09-12T00:00:19;9.85;;;8.55;;
9160;SDS011;4615;51.340;8.288;2023-09-12T00:02:47;9.85;;;8.75;;
9160;SDS011;4615;51.340;8.288;2023-09-12T00:05:13;11.05;;;8.98;;
9160;SDS011;4615;51.340;8.288;2023-09-12T00:07:39;12.93;;;9.18;;
9160;SDS011;4615;51.340;8.288;2023-09-12T00:10:06;11.52;;;9.25;;
9160;SDS011;4615;51.340;8.288;2023-09-12T00:12:32;14.25;;;8.80;;
9160;SDS011;4615;51.340;8.288;2023-09-12T00:14:59;11.50;;;8.88;;
9160;SDS011;4615;51.340;8.288;2023-09-12T00:17:25;11.00;;;9.57;;
9160;SDS011;4615;51.340;8.288;2023-09-12T00:19:53;9.88;;;8.85;;
9160;SDS011;4615;51.340;8.288;2023-09-12T00:22:19;12.55;;;9.13;;
9160;SDS011;4615;51.340;8.288;2023-09-12T00:24:46;12.35;;;8.88;;
9160;SDS011;4615;51.340;8.288;2023-09-12T00:27:12;9.80;;;8.80;;
9160;SDS011;4615;51.340;8.288;2023-09-12T00:29:38;10.23;;;8.95;;
9160;SDS011;4615;51.340;8.288;2023-09-12T00:32:05;9.93;;;8.40;;
9160;SDS011;4615;51.340;8.288;2023-09-12T00:34:32;12.10;;;9.40;;
9160;SDS011;4615;51.340;8.288;2023-09-12T00:37:00;10.38;;;8.93;;
9160;SDS011;4615;51.340;8.288;2023-09-12T00:39:26;10.30;;;9.07;;
9160;SDS011;4615;51.340;8.288;2023-09-12T00:41:53;11.27;;;9.40;;
9160;SDS011;4615;51.340;8.288;2023-09-12T00:44:19;11.03;;;9.00;;
9160;SDS011;4615;51.340;8.288;2023-09-12T00:46:45;9.65;;;8.65;;
9160;SDS011;4615;51.340;8.288;2023-09-12T00:49:12;11.05;;;9.02;;
9160;SDS011;4615;51.340;8.288;2023-09-12T00:51:39;9.52;;;8.63;;
9160;SDS011;4615;51.340;8.288;2023-09-12T00:54:08;9.32;;;8.40;;
9160;SDS011;4615;51.340;8.288;2023-09-12T00:56:34;9.60;;;8.38;;
9160;SDS011;4615;51.340;8.288;2023-09-12T00:59:00;11.20;;;9.13;;
9160;SDS011;4615;51.340;8.288;2023-09-12T01:01:27;10.63;;;9.35;;
9160;SDS011;4615;51.340;8.288;2023-09-12T01:03:53;11.27;;;9.37;;
9160;SDS011;4615;51.340;8.288;2023-09-12T01:06:21;12.05;;;10.45;;
9160;SDS011;4615;51.340;8.288;2023-09-12T01:08:48;16.05;;;14.25;;
9160;SDS011;4615;51.340;8.288;2023-09-12T01:11:15;16.33;;;14.60;;
9160;SDS011;4615;51.340;8.288;2023-09-12T01:13:43;17.40;;;14.70;;
9160;SDS011;4615;51.340;8.288;2023-09-12T01:16:09;15.15;;;13.55;;
9160;SDS011;4615;51.340;8.288;2023-09-12T01:18:38;16.00;;;13.35;;
9160;SDS011;4615;51.340;8.288;2023-09-12T01:21:24;14.40;;;12.90;;
9160;SDS011;4615;51.340;8.288;2023-09-12T01:23:56;16.73;;;13.75;;
9160;SDS011;4615;51.340;8.288;2023-09-12T01:26:34;14.60;;;12.70;;
9160;SDS011;4615;51.340;8.288;2023-09-12T01:29:04;15.63;;;13.15;;
9160;SDS011;4615;51.340;8.288;2023-09-12T01:31:32;15.20;;;12.50;;
9160;SDS011;4615;51.340;8.288;2023-09-12T01:34:07;13.35;;;12.05;;
9160;SDS011;4615;51.340;8.288;2023-09-12T01:36:34;13.48;;;12.02;;
9160;SDS011;4615;51.340;8.288;2023-09-12T01:39:00;17.10;;;12.60;;
9160;SDS011;4615;51.340;8.288;2023-09-12T01:41:26;13.90;;;12.45;;
9160;SDS011;4615;51.340;8.288;2023-09-12T01:43:54;15.77;;;12.60;;
9160;SDS011;4615;51.340;8.288;2023-09-12T01:46:22;13.35;;;11.90;;
9160;SDS011;4615;51.340;8.288;2023-09-12T01:48:48;13.52;;;11.98;;
9160;SDS011;4615;51.340;8.288;2023-09-12T01:51:16;14.30;;;12.77;;
9160;SDS011;4615;51.340;8.288;2023-09-12T01:53:44;12.00;;;10.75;;
9160;SDS011;4615;51.340;8.288;2023-09-12T01:56:11;13.00;;;11.63;;
9160;SDS011;4615;51.340;8.288;2023-09-12T01:58:37;13.35;;;11.95;;
9160;SDS011;4615;51.340;8.288;2023-09-12T02:01:04;13.95;;;11.55;;
9160;SDS011;4615;51.340;8.288;2023-09-12T02:03:31;13.53;;;12.00;;
9160;SDS011;4615;51.340;8.288;2023-09-12T02:05:58;13.27;;;11.93;;
9160;SDS011;4615;51.340;8.288;2023-09-12T02:08:24;13.13;;;11.83;;
9160;SDS011;4615;51.340;8.288;2023-09-12T02:10:50;13.38;;;11.80;;
9160;SDS011;4615;51.340;8.288;2023-09-12T02:13:17;14.80;;;12.23;;
9160;SDS011;4615;51.340;8.288;2023-09-12T02:15:43;13.43;;;12.02;;
9160;SDS011;4615;51.340;8.288;2023-09-12T02:18:09;13.90;;;12.55;;
9160;SDS011;4615;51.340;8.288;2023-09-12T02:20:40;13.30;;;11.77;;
9160;SDS011;4615;51.340;8.288;2023-09-12T02:23:06;14.95;;;12.77;;
9160;SDS011;4615;51.340;8.288;2023-09-12T02:25:33;13.93;;;12.57;;
9160;SDS011;4615;51.340;8.288;2023-09-12T02:27:59;13.43;;;11.60;;
9160;SDS011;4615;51.340;8.288;2023-09-12T02:30:26;13.38;;;11.70;;
9160;SDS011;4615;51.340;8.288;2023-09-12T02:32:52;13.20;;;11.80;;
9160;SDS011;4615;51.340;8.288;2023-09-12T02:35:18;14.07;;;12.32;;
9160;SDS011;4615;51.340;8.288;2023-09-12T02:37:46;15.07;;;13.20;;
9160;SDS011;4615;51.340;8.288;2023-09-12T02:40:12;16.02;;;13.35;;
9160;SDS011;4615;51.340;8.288;2023-09-12T02:42:39;15.85;;;12.95;;
9160;SDS011;4615;51.340;8.288;2023-09-12T02:45:06;15.32;;;12.98;;
9160;SDS011;4615;51.340;8.288;2023-09-12T02:47:33;16.52;;;14.77;;
9160;SDS011;4615;51.340;8.288;2023-09-12T02:49:59;15.45;;;13.90;;
9160;SDS011;4615;51.340;8.288;2023-09-12T02:52:25;15.95;;;12.88;;
9160;SDS011;4615;51.340;8.288;2023-09-12T02:54:53;14.63;;;13.13;;
9160;SDS011;4615;51.340;8.288;2023-09-12T02:57:19;15.45;;;14.07;;
9160;SDS011;4615;51.340;8.288;2023-09-12T02:59:46;15.25;;;13.55;;
9160;SDS011;4615;51.340;8.288;2023-09-12T03:02:12;16.15;;;14.10;;
9160;SDS011;4615;51.340;8.288;2023-09-12T03:04:38;18.15;;;15.43;;
9160;SDS011;4615;51.340;8.288;2023-09-12T03:07:05;16.40;;;14.50;;
9160;SDS011;4615;51.340;8.288;2023-09-12T03:09:31;18.43;;;15.83;;
9160;SDS011;4615;51.340;8.288;2023-09-12T03:11:59;19.88;;;17.60;;
9160;SDS011;4615;51.340;8.288;2023-09-12T03:14:27;20.33;;;16.95;;
9160;SDS011;4615;51.340;8.288;2023-09-12T03:16:53;18.80;;;16.90;;
9160;SDS011;4615;51.340;8.288;2023-09-12T03:19:21;16.80;;;13.68;;
9160;SDS011;4615;51.340;8.288;2023-09-12T03:21:47;16.48;;;14.70;;
9160;SDS011;4615;51.340;8.288;2023-09-12T03:24:13;19.15;;;14.32;;
9160;SDS011;4615;51.340;8.288;2023-09-12T03:26:43;16.40;;;14.70;;
9160;SDS011;4615;51.340;8.288;2023-09-12T03:29:10;16.98;;;15.05;;
9160;SDS011;4615;51.340;8.288;2023-09-12T03:31:37;17.35;;;15.25;;
9160;SDS011;4615;51.340;8.288;2023-09-12T03:37:06;18.60;;;16.13;;
9160;SDS011;4615;51.340;8.288;2023-09-12T03:42:42;17.33;;;15.60;;
9160;SDS011;4615;51.340;8.288;2023-09-12T03:45:10;20.92;;;18.77;;
9160;SDS011;4615;51.340;8.288;2023-09-12T03:47:36;20.13;;;18.02;;
9160;SDS011;4615;51.340;8.288;2023-09-12T03:50:03;18.77;;;16.77;;
9160;SDS011;4615;51.340;8.288;2023-09-12T03:52:29;16.00;;;14.40;;
9160;SDS011;4615;51.340;8.288;2023-09-12T03:54:56;16.80;;;15.10;;
9160;SDS011;4615;51.340;8.288;2023-09-12T03:57:22;19.25;;;17.35;;
9160;SDS011;4615;51.340;8.288;2023-09-12T03:59:50;20.70;;;18.50;;
9160;SDS011;4615;51.340;8.288;2023-09-12T04:02:19;19.97;;;18.07;;
9160;SDS011;4615;51.340;8.288;2023-09-12T04:04:45;24.67;;;21.98;;
9160;SDS011;4615;51.340;8.288;2023-09-12T04:07:11;23.30;;;21.00;;
9160;SDS011;4615;51.340;8.288;2023-09-12T04:09:38;22.83;;;20.52;;
9160;SDS011;4615;51.340;8.288;2023-09-12T04:12:04;24.77;;;22.17;;
9160;SDS011;4615;51.340;8.288;2023-09-12T04:14:31;23.13;;;20.70;;
9160;SDS011;4615;51.340;8.288;2023-09-12T04:16:58;21.60;;;19.23;;
9160;SDS011;4615;51.340;8.288;2023-09-12T04:19:26;21.70;;;19.55;;
9160;SDS011;4615;51.340;8.288;2023-09-12T04:21:52;23.00;;;20.80;;
9160;SDS011;4615;51.340;8.288;2023-09-12T04:24:18;23.17;;;21.05;;
9160;SDS011;4615;51.340;8.288;2023-09-12T04:26:46;24.67;;;22.08;;
9160;SDS011;4615;51.340;8.288;2023-09-12T04:29:12;21.75;;;19.58;;
9160;SDS011;4615;51.340;8.288;2023-09-12T04:31:38;20.33;;;18.13;;
9160;SDS011;4615;51.340;8.288;2023-09-12T04:34:05;20.30;;;18.23;;
9160;SDS011;4615;51.340;8.288;2023-09-12T04:36:32;20.25;;;17.98;;
9160;SDS011;4615;51.340;8.288;2023-09-12T04:38:59;21.80;;;19.50;;
9160;SDS011;4615;51.340;8.288;2023-09-12T04:41:25;21.35;;;19.15;;
9160;SDS011;4615;51.340;8.288;2023-09-12T04:43:51;19.67;;;17.77;;
9160;SDS011;4615;51.340;8.288;2023-09-12T04:46:18;20.10;;;18.02;;
9160;SDS011;4615;51.340;8.288;2023-09-12T04:48:44;20.27;;;18.17;;
9160;SDS011;4615;51.340;8.288;2023-09-12T04:51:10;20.25;;;18.15;;
9160;SDS011;4615;51.340;8.288;2023-09-12T04:53:38;20.13;;;18.05;;
9160;SDS011;4615;51.340;8.288;2023-09-12T04:56:05;20.30;;;18.40;;
9160;SDS011;4615;51.340;8.288;2023-09-12T04:58:34;21.35;;;19.30;;
9160;SDS011;4615;51.340;8.288;2023-09-12T05:01:01;20.73;;;18.52;;
9160;SDS011;4615;51.340;8.288;2023-09-12T05:03:29;20.75;;;18.83;;
9160;SDS011;4615;51.340;8.288;2023-09-12T05:05:58;20.57;;;18.57;;
9160;SDS011;4615;51.340;8.288;2023-09-12T05:08:24;19.02;;;17.17;;
9160;SDS011;4615;51.340;8.288;2023-09-12T05:10:52;20.05;;;17.88;;
9160;SDS011;4615;51.340;8.288;2023-09-12T05:13:18;19.88;;;17.98;;
9160;SDS011;4615;51.340;8.288;2023-09-12T05:15:44;18.10;;;16.20;;
9160;SDS011;4615;51.340;8.288;2023-09-12T05:18:11;15.83;;;14.40;;
9160;SDS011;4615;51.340;8.288;2023-09-12T05:20:37;14.70;;;13.27;;
9160;SDS011;4615;51.340;8.288;2023-09-12T05:23:03;16.80;;;15.10;;
9160;SDS011;4615;51.340;8.288;2023-09-12T05:25:30;16.30;;;14.70;;
9160;SDS011;4615;51.340;8.288;2023-09-12T05:27:57;16.02;;;14.63;;
9160;SDS011;4615;51.340;8.288;2023-09-12T05:30:24;18.60;;;16.88;;
9160;SDS011;4615;51.340;8.288;2023-09-12T05:32:50;18.20;;;16.48;;
9160;SDS011;4615;51.340;8.288;2023-09-12T05:35:16;16.70;;;15.20;;
9160;SDS011;4615;51.340;8.288;2023-09-12T05:37:43;15.43;;;13.82;;
9160;SDS011;4615;51.340;8.288;2023-09-12T05:40:09;14.32;;;12.82;;
9160;SDS011;4615;51.340;8.288;2023-09-12T05:42:36;13.63;;;12.43;;
9160;SDS011;4615;51.340;8.288;2023-09-12T05:45:04;14.05;;;12.65;;
9160;SDS011;4615;51.340;8.288;2023-09-12T05:47:31;13.13;;;12.02;;
9160;SDS011;4615;51.340;8.288;2023-09-12T05:49:57;13.87;;;12.43;;
9160;SDS011;4615;51.340;8.288;2023-09-12T05:52:24;14.20;;;12.80;;
9160;SDS011;4615;51.340;8.288;2023-09-12T05:54:50;14.23;;;12.82;;
9160;SDS011;4615;51.340;8.288;2023-09-12T05:57:17;13.13;;;11.93;;
9160;SDS011;4615;51.340;8.288;2023-09-12T05:59:43;12.65;;;11.55;;
9160;SDS011;4615;51.340;8.288;2023-09-12T06:02:11;13.32;;;11.95;;
9160;SDS011;4615;51.340;8.288;2023-09-12T06:04:37;12.63;;;11.55;;
9160;SDS011;4615;51.340;8.288;2023-09-12T06:07:04;13.55;;;12.15;;
9160;SDS011;4615;51.340;8.288;2023-09-12T06:09:30;11.73;;;10.52;;
9160;SDS011;4615;51.340;8.288;2023-09-12T06:11:56;12.30;;;11.10;;
9160;SDS011;4615;51.340;8.288;2023-09-12T06:14:23;12.52;;;11.43;;
9160;SDS011;4615;51.340;8.288;2023-09-12T06:16:49;11.73;;;10.73;;
9160;SDS011;4615;51.340;8.288;2023-09-12T06:19:17;13.43;;;12.13;;
9160;SDS011;4615;51.340;8.288;2023-09-12T06:21:44;12.80;;;11.60;;
9160;SDS011;4615;51.340;8.288;2023-09-12T06:24:11;13.05;;;11.75;;
9160;SDS011;4615;51.340;8.288;2023-09-12T06:26:38;13.02;;;11.85;;
9160;SDS011;4615;51.340;8.288;2023-09-12T06:29:05;12.52;;;11.43;;
9160;SDS011;4615;51.340;8.288;2023-09-12T06:31:31;13.27;;;12.07;;
9160;SDS011;4615;51.340;8.288;2023-09-12T06:33:58;12.77;;;11.50;;
9160;SDS011;4615;51.340;8.288;2023-09-12T06:36:26;12.77;;;11.57;;
9160;SDS011;4615;51.340;8.288;2023-09-12T06:38:54;13.13;;;11.82;;
9160;SDS011;4615;51.340;8.288;2023-09-12T06:41:20;13.75;;;12.40;;
9160;SDS011;4615;51.340;8.288;2023-09-12T06:43:47;13.52;;;12.32;;
9160;SDS011;4615;51.340;8.288;2023-09-12T06:46:13;15.18;;;12.02;;
9160;SDS011;4615;51.340;8.288;2023-09-12T06:48:42;14.63;;;13.02;;
9160;SDS011;4615;51.340;8.288;2023-09-12T06:51:09;13.45;;;12.18;;
9160;SDS011;4615;51.340;8.288;2023-09-12T06:53:36;15.27;;;13.67;;
9160;SDS011;4615;51.340;8.288;2023-09-12T06:56:03;14.52;;;13.07;;
9160;SDS011;4615;51.340;8.288;2023-09-12T06:58:29;15.05;;;13.65;;
9160;SDS011;4615;51.340;8.288;2023-09-12T07:00:56;15.60;;;14.05;;
9160;SDS011;4615;51.340;8.288;2023-09-12T07:03:27;15.98;;;14.40;;
9160;SDS011;4615;51.340;8.288;2023-09-12T07:05:53;16.80;;;14.90;;
9160;SDS011;4615;51.340;8.288;2023-09-12T07:08:20;16.73;;;15.13;;
9160;SDS011;4615;51.340;8.288;2023-09-12T07:10:48;17.30;;;15.55;;
9160;SDS011;4615;51.340;8.288;2023-09-12T07:13:14;17.33;;;15.50;;
9160;SDS011;4615;51.340;8.288;2023-09-12T07:15:40;16.60;;;15.15;;
9160;SDS011;4615;51.340;8.288;2023-09-12T07:18:07;16.73;;;15.03;;
9160;SDS011;4615;51.340;8.288;2023-09-12T07:20:33;15.63;;;14.13;;
9160;SDS011;4615;51.340;8.288;2023-09-12T07:23:00;15.27;;;13.80;;
9160;SDS011;4615;51.340;8.288;2023-09-12T07:25:26;16.00;;;14.40;;
9160;SDS011;4615;51.340;8.288;2023-09-12T07:27:54;15.50;;;13.90;;
9160;SDS011;4615;51.340;8.288;2023-09-12T07:30:20;14.35;;;13.02;;
9160;SDS011;4615;51.340;8.288;2023-09-12T07:32:47;13.98;;;12.57;;
9160;SDS011;4615;51.340;8.288;2023-09-12T07:35:13;14.50;;;13.20;;
9160;SDS011;4615;51.340;8.288;2023-09-12T07:37:39;13.27;;;11.95;;
9160;SDS011;4615;51.340;8.288;2023-09-12T07:40:06;13.23;;;11.90;;
9160;SDS011;4615;51.340;8.288;2023-09-12T07:42:34;12.77;;;11.47;;
9160;SDS011;4615;51.340;8.288;2023-09-12T07:45:03;12.23;;;11.10;;
9160;SDS011;4615;51.340;8.288;2023-09-12T07:47:29;11.98;;;10.88;;
9160;SDS011;4615;51.340;8.288;2023-09-12T07:49:55;11.90;;;10.50;;
9160;SDS011;4615;51.340;8.288;2023-09-12T07:52:22;12.07;;;10.67;;
9160;SDS011;4615;51.340;8.288;2023-09-12T07:54:48;11.75;;;10.57;;
9160;SDS011;4615;51.340;8.288;2023-09-12T07:57:15;11.38;;;10.07;;
9160;SDS011;4615;51.340;8.288;2023-09-12T07:59:42;12.73;;;11.45;;
9160;SDS011;4615;51.340;8.288;2023-09-12T08:02:09;13.48;;;12.13;;
9160;SDS011;4615;51.340;8.288;2023-09-12T08:04:37;12.93;;;11.70;;
9160;SDS011;4615;51.340;8.288;2023-09-12T08:07:04;12.65;;;11.38;;
9160;SDS011;4615;51.340;8.288;2023-09-12T08:12:11;13.68;;;12.07;;
9160;SDS011;4615;51.340;8.288;2023-09-12T08:14:38;14.13;;;11.70;;
9160;SDS011;4615;51.340;8.288;2023-09-12T08:17:04;13.07;;;11.60;;
9160;SDS011;4615;51.340;8.288;2023-09-12T08:19:32;13.40;;;11.82;;
9160;SDS011;4615;51.340;8.288;2023-09-12T08:21:58;13.03;;;11.83;;
9160;SDS011;4615;51.340;8.288;2023-09-12T08:24:24;12.35;;;11.20;;
9160;SDS011;4615;51.340;8.288;2023-09-12T08:26:51;14.02;;;12.30;;
9160;SDS011;4615;51.340;8.288;2023-09-12T08:29:17;12.90;;;11.70;;
9160;SDS011;4615;51.340;8.288;2023-09-12T08:31:43;13.02;;;11.70;;
9160;SDS011;4615;51.340;8.288;2023-09-12T08:34:12;14.65;;;12.30;;
9160;SDS011;4615;51.340;8.288;2023-09-12T08:36:39;13.00;;;11.60;;
9160;SDS011;4615;51.340;8.288;2023-09-12T08:39:06;14.30;;;11.25;;
9160;SDS011;4615;51.340;8.288;2023-09-12T08:41:33;13.00;;;11.33;;
9160;SDS011;4615;51.340;8.288;2023-09-12T08:44:00;12.57;;;10.75;;
9160;SDS011;4615;51.340;8.288;2023-09-12T08:46:27;12.75;;;10.85;;
9160;SDS011;4615;51.340;8.288;2023-09-12T08:48:54;11.95;;;10.75;;
9160;SDS011;4615;51.340;8.288;2023-09-12T08:51:21;11.48;;;10.27;;
9160;SDS011;4615;51.340;8.288;2023-09-12T08:53:50;11.73;;;10.52;;
9160;SDS011;4615;51.340;8.288;2023-09-12T08:56:16;11.52;;;10.30;;
9160;SDS011;4615;51.340;8.288;2023-09-12T08:58:43;12.53;;;11.33;;
9160;SDS011;4615;51.340;8.288;2023-09-12T09:01:09;12.90;;;11.70;;
9160;SDS011;4615;51.340;8.288;2023-09-12T09:03:38;13.47;;;12.20;;
9160;SDS011;4615;51.340;8.288;2023-09-12T09:06:06;14.13;;;12.73;;
9160;SDS011;4615;51.340;8.288;2023-09-12T09:08:32;15.10;;;13.65;;
9160;SDS011;4615;51.340;8.288;2023-09-12T09:11:01;14.80;;;13.30;;
9160;SDS011;4615;51.340;8.288;2023-09-12T09:13:30;14.27;;;12.77;;
9160;SDS011;4615;51.340;8.288;2023-09-12T09:16:09;13.50;;;12.20;;
9160;SDS011;4615;51.340;8.288;2023-09-12T09:18:49;13.18;;;11.13;;
9160;SDS011;4615;51.340;8.288;2023-09-12T09:21:16;12.10;;;10.90;;
9160;SDS011;4615;51.340;8.288;2023-09-12T09:23:44;11.65;;;10.13;;
9160;SDS011;4615;51.340;8.288;2023-09-12T09:26:12;9.67;;;8.70;;
9160;SDS011;4615;51.340;8.288;2023-09-12T09:28:38;12.73;;;9.03;;
9160;SDS011;4615;51.340;8.288;2023-09-12T09:31:05;9.18;;;7.43;;
9160;SDS011;4615;51.340;8.288;2023-09-12T09:33:36;9.30;;;7.73;;
9160;SDS011;4615;51.340;8.288;2023-09-12T09:36:04;9.88;;;7.88;;
9160;SDS011;4615;51.340;8.288;2023-09-12T09:38:30;8.25;;;7.53;;
9160;SDS011;4615;51.340;8.288;2023-09-12T09:40:57;8.43;;;7.43;;
9160;SDS011;4615;51.340;8.288;2023-09-12T09:43:25;9.00;;;7.22;;
9160;SDS011;4615;51.340;8.288;2023-09-12T09:45:51;8.40;;;7.60;;
9160;SDS011;4615;51.340;8.288;2023-09-12T09:48:18;8.15;;;6.32;;
9160;SDS011;4615;51.340;8.288;2023-09-12T09:50:45;7.95;;;7.22;;
9160;SDS011;4615;51.340;8.288;2023-09-12T09:53:11;8.10;;;7.40;;
9160;SDS011;4615;51.340;8.288;2023-09-12T09:55:38;8.05;;;7.25;;
9160;SDS011;4615;51.340;8.288;2023-09-12T09:58:05;8.73;;;7.80;;
9160;SDS011;4615;51.340;8.288;2023-09-12T10:00:33;8.27;;;7.47;;
9160;SDS011;4615;51.340;8.288;2023-09-12T10:03:00;8.43;;;7.40;;
9160;SDS011;4615;51.340;8.288;2023-09-12T10:05:27;8.50;;;7.30;;
9160;SDS011;4615;51.340;8.288;2023-09-12T10:07:55;8.90;;;7.20;;
9160;SDS011;4615;51.340;8.288;2023-09-12T10:10:22;8.50;;;6.72;;
9160;SDS011;4615;51.340;8.288;2023-09-12T10:12:51;8.35;;;6.13;;
9160;SDS011;4615;51.340;8.288;2023-09-12T10:15:19;7.10;;;6.30;;
9160;SDS011;4615;51.340;8.288;2023-09-12T10:17:51;6.88;;;6.22;;
9160;SDS011;4615;51.340;8.288;2023-09-12T10:20:20;6.82;;;5.97;;
9160;SDS011;4615;51.340;8.288;2023-09-12T10:22:48;7.07;;;5.90;;
9160;SDS011;4615;51.340;8.288;2023-09-12T10:25:18;6.57;;;5.97;;
9160;SDS011;4615;51.340;8.288;2023-09-12T10:27:44;7.68;;;6.57;;
9160;SDS011;4615;51.340;8.288;2023-09-12T10:30:11;7.88;;;6.13;;
9160;SDS011;4615;51.340;8.288;2023-09-12T10:32:38;6.38;;;5.80;;
9160;SDS011;4615;51.340;8.288;2023-09-12T10:35:07;6.50;;;5.90;;
9160;SDS011;4615;51.340;8.288;2023-09-12T10:37:34;6.90;;;6.10;;
9160;SDS011;4615;51.340;8.288;2023-09-12T10:40:01;7.20;;;5.72;;
9160;SDS011;4615;51.340;8.288;2023-09-12T10:42:28;7.43;;;6.45;;
9160;SDS011;4615;51.340;8.288;2023-09-12T10:44:55;6.25;;;5.65;;
9160;SDS011;4615;51.340;8.288;2023-09-12T10:47:23;7.50;;;5.68;;
9160;SDS011;4615;51.340;8.288;2023-09-12T10:49:50;6.25;;;5.68;;
9160;SDS011;4615;51.340;8.288;2023-09-12T10:52:24;5.10;;;4.60;;
9160;SDS011;4615;51.340;8.288;2023-09-12T10:54:51;4.80;;;4.40;;
9160;SDS011;4615;51.340;8.288;2023-09-12T10:57:18;4.45;;;3.90;;
9160;SDS011;4615;51.340;8.288;2023-09-12T11:02:33;4.88;;;3.60;;
9160;SDS011;4615;51.340;8.288;2023-09-12T11:05:00;4.07;;;3.67;;
9160;SDS011;4615;51.340;8.288;2023-09-12T11:07:33;4.50;;;4.10;;
9160;SDS011;4615;51.340;8.288;2023-09-12T11:10:16;4.78;;;4.15;;
9160;SDS011;4615;51.340;8.288;2023-09-12T11:12:44;4.50;;;4.10;;
9160;SDS011;4615;51.340;8.288;2023-09-12T11:15:10;5.90;;;3.72;;
9160;SDS011;4615;51.340;8.288;2023-09-12T11:17:37;4.37;;;3.60;;
9160;SDS011;4615;51.340;8.288;2023-09-12T11:20:03;5.15;;;4.10;;
9160;SDS011;4615;51.340;8.288;2023-09-12T11:22:36;4.15;;;3.83;;
9160;SDS011;4615;51.340;8.288;2023-09-12T11:25:04;4.70;;;4.30;;
9160;SDS011;4615;51.340;8.288;2023-09-12T11:27:31;4.40;;;4.00;;
9160;SDS011;4615;51.340;8.288;2023-09-12T11:30:02;4.10;;;3.70;;
9160;SDS011;4615;51.340;8.288;2023-09-12T11:32:30;4.30;;;3.90;;
9160;SDS011;4615;51.340;8.288;2023-09-12T11:34:57;4.57;;;3.70;;
9160;SDS011;4615;51.340;8.288;2023-09-12T11:37:25;4.28;;;3.88;;
9160;SDS011;4615;51.340;8.288;2023-09-12T11:39:53;4.68;;;3.72;;
9160;SDS011;4615;51.340;8.288;2023-09-12T11:42:20;3.97;;;3.58;;
9160;SDS011;4615;51.340;8.288;2023-09-12T11:44:48;4.45;;;4.00;;
9160;SDS011;4615;51.340;8.288;2023-09-12T11:47:14;5.00;;;4.05;;
9160;SDS011;4615;51.340;8.288;2023-09-12T11:49:41;5.18;;;4.15;;
9160;SDS011;4615;51.340;8.288;2023-09-12T11:52:08;5.00;;;4.10;;
9160;SDS011;4615;51.340;8.288;2023-09-12T11:54:34;5.35;;;4.53;;
9160;SDS011;4615;51.340;8.288;2023-09-12T11:57:02;7.63;;;4.15;;
9160;SDS011;4615;51.340;8.288;2023-09-12T11:59:29;5.57;;;4.35;;
9160;SDS011;4615;51.340;8.288;2023-09-12T12:01:55;5.22;;;4.50;;
9160;SDS011;4615;51.340;8.288;2023-09-12T12:04:25;5.20;;;4.10;;
9160;SDS011;4615;51.340;8.288;2023-09-12T12:06:51;5.15;;;4.65;;
9160;SDS011;4615;51.340;8.288;2023-09-12T12:09:18;5.40;;;4.60;;
9160;SDS011;4615;51.340;8.288;2023-09-12T12:11:45;5.60;;;4.20;;
9160;SDS011;4615;51.340;8.288;2023-09-12T12:14:13;7.10;;;4.80;;
9160;SDS011;4615;51.340;8.288;2023-09-12T12:16:40;5.65;;;5.00;;
9160;SDS011;4615;51.340;8.288;2023-09-12T12:19:07;6.20;;;4.78;;
9160;SDS011;4615;51.340;8.288;2023-09-12T12:21:33;5.37;;;4.67;;
9160;SDS011;4615;51.340;8.288;2023-09-12T12:24:00;9.02;;;5.20;;
9160;SDS011;4615;51.340;8.288;2023-09-12T12:26:26;5.60;;;4.97;;
9160;SDS011;4615;51.340;8.288;2023-09-12T12:28:53;6.95;;;4.60;;
9160;SDS011;4615;51.340;8.288;2023-09-12T12:31:20;5.63;;;4.55;;
9160;SDS011;4615;51.340;8.288;2023-09-12T12:33:49;8.10;;;5.35;;
9160;SDS011;4615;51.340;8.288;2023-09-12T12:36:15;5.65;;;5.13;;
9160;SDS011;4615;51.340;8.288;2023-09-12T12:38:42;6.22;;;5.15;;
9160;SDS011;4615;51.340;8.288;2023-09-12T12:41:09;6.78;;;5.30;;
9160;SDS011;4615;51.340;8.288;2023-09-12T12:43:35;5.57;;;5.00;;
9160;SDS011;4615;51.340;8.288;2023-09-12T12:46:02;6.13;;;5.40;;
9160;SDS011;4615;51.340;8.288;2023-09-12T12:48:30;6.15;;;4.90;;
9160;SDS011;4615;51.340;8.288;2023-09-12T12:50:59;5.30;;;4.75;;
9160;SDS011;4615;51.340;8.288;2023-09-12T12:53:38;8.27;;;5.30;;
9160;SDS011;4615;51.340;8.288;2023-09-12T12:56:04;5.88;;;5.07;;
9160;SDS011;4615;51.340;8.288;2023-09-12T12:58:31;6.07;;;5.00;;
9160;SDS011;4615;51.340;8.288;2023-09-12T13:00:57;5.53;;;4.90;;
9160;SDS011;4615;51.340;8.288;2023-09-12T13:03:23;5.90;;;4.95;;
9160;SDS011;4615;51.340;8.288;2023-09-12T13:05:51;6.43;;;4.95;;
9160;SDS011;4615;51.340;8.288;2023-09-12T13:08:17;7.55;;;4.90;;
9160;SDS011;4615;51.340;8.288;2023-09-12T13:10:44;8.13;;;5.13;;
9160;SDS011;4615;51.340;8.288;2023-09-12T13:13:09;6.73;;;5.20;;
9160;SDS011;4615;51.340;8.288;2023-09-12T13:15:36;6.90;;;5.20;;
9160;SDS011;4615;51.340;8.288;2023-09-12T13:18:02;7.57;;;5.80;;
9160;SDS011;4615;51.340;8.288;2023-09-12T13:20:29;7.32;;;5.40;;
9160;SDS011;4615;51.340;8.288;2023-09-12T13:22:57;6.70;;;5.10;;
9160;SDS011;4615;51.340;8.288;2023-09-12T13:25:23;6.05;;;5.00;;
9160;SDS011;4615;51.340;8.288;2023-09-12T13:27:49;8.25;;;5.43;;
9160;SDS011;4615;51.340;8.288;2023-09-12T13:30:16;5.55;;;4.97;;
9160;SDS011;4615;51.340;8.288;2023-09-12T13:32:42;7.87;;;5.40;;
9160;SDS011;4615;51.340;8.288;2023-09-12T13:35:10;7.43;;;5.20;;
9160;SDS011;4615;51.340;8.288;2023-09-12T13:37:37;6.28;;;4.88;;
9160;SDS011;4615;51.340;8.288;2023-09-12T13:40:05;6.60;;;5.10;;
9160;SDS011;4615;51.340;8.288;2023-09-12T13:42:34;5.85;;;5.18;;
9160;SDS011;4615;51.340;8.288;2023-09-12T13:45:02;6.75;;;5.38;;
9160;SDS011;4615;51.340;8.288;2023-09-12T13:47:29;5.30;;;4.80;;
9160;SDS011;4615;51.340;8.288;2023-09-12T13:49:55;6.53;;;5.45;;
9160;SDS011;4615;51.340;8.288;2023-09-12T13:52:22;5.82;;;4.78;;
9160;SDS011;4615;51.340;8.288;2023-09-12T13:54:48;6.10;;;4.70;;
9160;SDS011;4615;51.340;8.288;2023-09-12T13:57:16;5.82;;;4.82;;
9160;SDS011;4615;51.340;8.288;2023-09-12T13:59:43;5.85;;;4.75;;
9160;SDS011;4615;51.340;8.288;2023-09-12T14:02:09;5.30;;;4.80;;
9160;SDS011;4615;51.340;8.288;2023-09-12T14:04:35;5.57;;;4.80;;
9160;SDS011;4615;51.340;8.288;2023-09-12T14:07:02;7.03;;;5.07;;
9160;SDS011;4615;51.340;8.288;2023-09-12T14:09:28;7.32;;;5.18;;
9160;SDS011;4615;51.340;8.288;2023-09-12T14:11:55;6.10;;;4.90;;
9160;SDS011;4615;51.340;8.288;2023-09-12T14:14:22;6.75;;;4.75;;
9160;SDS011;4615;51.340;8.288;2023-09-12T14:16:49;5.30;;;4.75;;
9160;SDS011;4615;51.340;8.288;2023-09-12T14:19:15;5.22;;;4.07;;
9160;SDS011;4615;51.340;8.288;2023-09-12T14:21:42;6.47;;;3.60;;
9160;SDS011;4615;51.340;8.288;2023-09-12T14:24:09;4.43;;;3.65;;
9160;SDS011;4615;51.340;8.288;2023-09-12T14:26:35;3.92;;;3.63;;
9160;SDS011;4615;51.340;8.288;2023-09-12T14:29:02;5.93;;;4.10;;
9160;SDS011;4615;51.340;8.288;2023-09-12T14:31:30;6.28;;;4.55;;
9160;SDS011;4615;51.340;8.288;2023-09-12T14:33:56;4.70;;;3.50;;
9160;SDS011;4615;51.340;8.288;2023-09-12T14:36:22;5.00;;;3.38;;
9160;SDS011;4615;51.340;8.288;2023-09-12T14:38:49;3.90;;;3.50;;
9160;SDS011;4615;51.340;8.288;2023-09-12T14:41:15;5.57;;;3.40;;
9160;SDS011;4615;51.340;8.288;2023-09-12T14:43:42;6.18;;;3.55;;
9160;SDS011;4615;51.340;8.288;2023-09-12T14:46:08;4.38;;;3.40;;
9160;SDS011;4615;51.340;8.288;2023-09-12T14:48:36;3.97;;;3.45;;
9160;SDS011;4615;51.340;8.288;2023-09-12T14:51:03;3.60;;;3.30;;
9160;SDS011;4615;51.340;8.288;2023-09-12T14:53:29;4.00;;;3.00;;
9160;SDS011;4615;51.340;8.288;2023-09-12T14:55:57;6.88;;;3.13;;
9160;SDS011;4615;51.340;8.288;2023-09-12T14:58:23;3.50;;;3.20;;
9160;SDS011;4615;51.340;8.288;2023-09-12T15:00:49;3.95;;;3.10;;
9160;SDS011;4615;51.340;8.288;2023-09-12T15:03:16;4.90;;;3.10;;
9160;SDS011;4615;51.340;8.288;2023-09-12T15:05:43;4.30;;;3.35;;
9160;SDS011;4615;51.340;8.288;2023-09-12T15:08:10;4.10;;;3.45;;
9160;SDS011;4615;51.340;8.288;2023-09-12T15:10:36;3.38;;;3.08;;